sensor_id;sensor_type;location;lat;lon;timestamp;pressure;altitude;pressure_sealevel;temperature
70123;BMP280;57489;37.404;24.920;2023-07-31T00:03:17;99413.72;;;30.63
70123;BMP280;57489;37.404;24.920;2023-07-31T00:08:17;99413.72;;;30.63
70123;BMP280;57489;37.404;24.920;2023-07-31T00:13:18;99413.72;;;30.63
70123;BMP280;57489;37.404;24.920;2023-07-31T00:18:18;99413.72;;;30.63
70123;BMP280;57489;37.404;24.920;2023-07-31T00:23:19;99403.34;;;30.38
70123;BMP280;57489;37.404;24.920;2023-07-31T00:28:19;99403.22;;;30.45
70123;BMP280;57489;37.404;24.920;2023-07-31T00:33:20;99392.16;;;30.36
70123;BMP280;57489;37.404;24.920;2023-07-31T00:38:20;99399.50;;;30.35
70123;BMP280;57489;37.404;24.920;2023-07-31T00:43:21;99390.22;;;30.36
70123;BMP280;57489;37.404;24.920;2023-07-31T00:48:21;99387.00;;;30.41
70123;BMP280;57489;37.404;24.920;2023-07-31T00:53:22;99385.75;;;30.46
70123;BMP280;57489;37.404;24.920;2023-07-31T00:58:23;99377.50;;;30.53
70123;BMP280;57489;37.404;24.920;2023-07-31T01:03:23;99369.16;;;30.44
70123;BMP280;57489;37.404;24.920;2023-07-31T01:08:33;99361.38;;;30.46
70123;BMP280;57489;37.404;24.920;2023-07-31T01:13:37;99367.16;;;30.28
70123;BMP280;57489;37.404;24.920;2023-07-31T01:18:38;99373.47;;;30.21
70123;BMP280;57489;37.404;24.920;2023-07-31T01:34:06;99366.72;;;30.29
70123;BMP280;57489;37.404;24.920;2023-07-31T01:39:09;99357.97;;;30.22
70123;BMP280;57489;37.404;24.920;2023-07-31T01:44:09;99366.16;;;30.18
70123;BMP280;57489;37.404;24.920;2023-07-31T01:49:10;99368.03;;;30.21
70123;BMP280;57489;37.404;24.920;2023-07-31T01:54:10;99363.47;;;30.18
70123;BMP280;57489;37.404;24.920;2023-07-31T01:59:10;99365.69;;;30.23
70123;BMP280;57489;37.404;24.920;2023-07-31T02:04:11;99365.69;;;30.23
70123;BMP280;57489;37.404;24.920;2023-07-31T02:09:12;99365.69;;;30.23
70123;BMP280;57489;37.404;24.920;2023-07-31T02:14:12;99365.69;;;30.23
70123;BMP280;57489;37.404;24.920;2023-07-31T02:19:12;99365.69;;;30.23
70123;BMP280;57489;37.404;24.920;2023-07-31T02:24:13;99365.69;;;30.23
70123;BMP280;57489;37.404;24.920;2023-07-31T02:29:14;99365.69;;;30.23
70123;BMP280;57489;37.404;24.920;2023-07-31T02:34:14;99365.69;;;30.23
70123;BMP280;57489;37.404;24.920;2023-07-31T02:39:14;99365.69;;;30.23
70123;BMP280;57489;37.404;24.920;2023-07-31T02:44:15;99365.69;;;30.23
70123;BMP280;57489;37.404;24.920;2023-07-31T02:49:15;99365.69;;;30.23
70123;BMP280;57489;37.404;24.920;2023-07-31T02:54:16;99365.69;;;30.23
70123;BMP280;57489;37.404;24.920;2023-07-31T02:59:17;99365.69;;;30.23
70123;BMP280;57489;37.404;24.920;2023-07-31T03:04:17;99365.69;;;30.23
70123;BMP280;57489;37.404;24.920;2023-07-31T03:09:18;99365.69;;;30.23
70123;BMP280;57489;37.404;24.920;2023-07-31T03:14:18;99365.69;;;30.23
70123;BMP280;57489;37.404;24.920;2023-07-31T03:19:19;99365.69;;;30.23
70123;BMP280;57489;37.404;24.920;2023-07-31T03:24:19;99363.72;;;30.04
70123;BMP280;57489;37.404;24.920;2023-07-31T03:29:19;99363.72;;;30.04
70123;BMP280;57489;37.404;24.920;2023-07-31T03:34:20;99363.72;;;30.04
70123;BMP280;57489;37.404;24.920;2023-07-31T03:39:20;99363.72;;;30.04
70123;BMP280;57489;37.404;24.920;2023-07-31T03:44:21;99363.72;;;30.04
70123;BMP280;57489;37.404;24.920;2023-07-31T03:49:21;99363.72;;;30.04
70123;BMP280;57489;37.404;24.920;2023-07-31T03:54:22;99363.72;;;30.04
70123;BMP280;57489;37.404;24.920;2023-07-31T03:59:22;99363.72;;;30.04
70123;BMP280;57489;37.404;24.920;2023-07-31T04:04:22;99363.72;;;30.04
70123;BMP280;57489;37.404;24.920;2023-07-31T04:09:23;99363.72;;;30.04
70123;BMP280;57489;37.404;24.920;2023-07-31T04:14:23;99363.72;;;30.04
70123;BMP280;57489;37.404;24.920;2023-07-31T04:19:24;99363.72;;;30.04
70123;BMP280;57489;37.404;24.920;2023-07-31T04:24:24;99363.72;;;30.04
70123;BMP280;57489;37.404;24.920;2023-07-31T04:29:25;99363.72;;;30.04
70123;BMP280;57489;37.404;24.920;2023-07-31T04:34:25;99363.72;;;30.04
70123;BMP280;57489;37.404;24.920;2023-07-31T04:39:26;99363.72;;;30.04
70123;BMP280;57489;37.404;24.920;2023-07-31T04:44:26;99363.72;;;30.04
70123;BMP280;57489;37.404;24.920;2023-07-31T04:49:27;99363.72;;;30.04
70123;BMP280;57489;37.404;24.920;2023-07-31T04:54:27;99363.72;;;30.04
70123;BMP280;57489;37.404;24.920;2023-07-31T04:59:27;99363.72;;;30.04
70123;BMP280;57489;37.404;24.920;2023-07-31T05:04:28;99363.72;;;30.04
70123;BMP280;57489;37.404;24.920;2023-07-31T05:09:28;99363.72;;;30.04
70123;BMP280;57489;37.404;24.920;2023-07-31T05:14:29;99363.72;;;30.04
70123;BMP280;57489;37.404;24.920;2023-07-31T05:19:29;99363.72;;;30.04
70123;BMP280;57489;37.404;24.920;2023-07-31T05:24:30;99363.72;;;30.04
70123;BMP280;57489;37.404;24.920;2023-07-31T05:29:30;99363.72;;;30.04
70123;BMP280;57489;37.404;24.920;2023-07-31T05:34:31;99363.72;;;30.04
70123;BMP280;57489;37.404;24.920;2023-07-31T05:39:31;99363.72;;;30.04
70123;BMP280;57489;37.404;24.920;2023-07-31T05:44:32;99363.72;;;30.04
70123;BMP280;57489;37.404;24.920;2023-07-31T05:49:32;99363.72;;;30.04
70123;BMP280;57489;37.404;24.920;2023-07-31T05:54:33;99363.72;;;30.04
70123;BMP280;57489;37.404;24.920;2023-07-31T05:59:33;99363.72;;;30.04
70123;BMP280;57489;37.404;24.920;2023-07-31T06:04:33;99363.72;;;30.04
70123;BMP280;57489;37.404;24.920;2023-07-31T06:09:34;99363.72;;;30.04
70123;BMP280;57489;37.404;24.920;2023-07-31T06:14:34;99363.72;;;30.04
70123;BMP280;57489;37.404;24.920;2023-07-31T06:19:35;99363.72;;;30.04
70123;BMP280;57489;37.404;24.920;2023-07-31T06:24:35;99363.72;;;30.04
70123;BMP280;57489;37.404;24.920;2023-07-31T06:29:36;99363.72;;;30.04
70123;BMP280;57489;37.404;24.920;2023-07-31T06:34:36;99363.72;;;30.04
70123;BMP280;57489;37.404;24.920;2023-07-31T06:39:37;99363.72;;;30.04
70123;BMP280;57489;37.404;24.920;2023-07-31T06:44:37;99363.72;;;30.04
70123;BMP280;57489;37.404;24.920;2023-07-31T06:49:38;99363.72;;;30.04
70123;BMP280;57489;37.404;24.920;2023-07-31T06:54:38;99363.72;;;30.04
70123;BMP280;57489;37.404;24.920;2023-07-31T06:59:38;99363.72;;;30.04
70123;BMP280;57489;37.404;24.920;2023-07-31T07:04:39;99363.72;;;30.04
70123;BMP280;57489;37.404;24.920;2023-07-31T07:09:39;99363.72;;;30.04
70123;BMP280;57489;37.404;24.920;2023-07-31T07:14:40;99363.72;;;30.04
70123;BMP280;57489;37.404;24.920;2023-07-31T07:19:40;99363.72;;;30.04
70123;BMP280;57489;37.404;24.920;2023-07-31T07:24:41;99363.72;;;30.04
70123;BMP280;57489;37.404;24.920;2023-07-31T07:29:41;99363.72;;;30.04
70123;BMP280;57489;37.404;24.920;2023-07-31T07:34:42;99363.72;;;30.04
70123;BMP280;57489;37.404;24.920;2023-07-31T07:39:43;99363.72;;;30.04
70123;BMP280;57489;37.404;24.920;2023-07-31T07:44:44;99363.72;;;30.04
70123;BMP280;57489;37.404;24.920;2023-07-31T07:49:44;99363.72;;;30.04
70123;BMP280;57489;37.404;24.920;2023-07-31T07:54:45;99363.72;;;30.04
70123;BMP280;57489;37.404;24.920;2023-07-31T07:59:45;99363.72;;;30.04
70123;BMP280;57489;37.404;24.920;2023-07-31T08:04:46;99363.72;;;30.04
70123;BMP280;57489;37.404;24.920;2023-07-31T08:09:46;99363.72;;;30.04
70123;BMP280;57489;37.404;24.920;2023-07-31T08:14:47;99363.72;;;30.04
70123;BMP280;57489;37.404;24.920;2023-07-31T08:19:47;99363.72;;;30.04
70123;BMP280;57489;37.404;24.920;2023-07-31T08:24:48;99363.72;;;30.04
70123;BMP280;57489;37.404;24.920;2023-07-31T08:29:48;99363.72;;;30.04
70123;BMP280;57489;37.404;24.920;2023-07-31T08:34:48;99363.72;;;30.04
70123;BMP280;57489;37.404;24.920;2023-07-31T08:39:49;99363.72;;;30.04
70123;BMP280;57489;37.404;24.920;2023-07-31T08:44:50;99363.72;;;30.04
70123;BMP280;57489;37.404;24.920;2023-07-31T08:49:51;99363.72;;;30.04
70123;BMP280;57489;37.404;24.920;2023-07-31T08:54:52;99363.72;;;30.04
70123;BMP280;57489;37.404;24.920;2023-07-31T08:59:53;99363.72;;;30.04
70123;BMP280;57489;37.404;24.920;2023-07-31T09:04:54;99363.72;;;30.04
70123;BMP280;57489;37.404;24.920;2023-07-31T09:09:54;99363.72;;;30.04
70123;BMP280;57489;37.404;24.920;2023-07-31T09:14:58;99363.72;;;30.04
70123;BMP280;57489;37.404;24.920;2023-07-31T09:20:19;99363.72;;;30.04
70123;BMP280;57489;37.404;24.920;2023-07-31T09:25:21;99363.72;;;30.04
70123;BMP280;57489;37.404;24.920;2023-07-31T09:30:22;99363.72;;;30.04
70123;BMP280;57489;37.404;24.920;2023-07-31T09:35:29;99363.72;;;30.04
70123;BMP280;57489;37.404;24.920;2023-07-31T09:40:32;99363.72;;;30.04
70123;BMP280;57489;37.404;24.920;2023-07-31T09:45:37;99363.72;;;30.04
70123;BMP280;57489;37.404;24.920;2023-07-31T09:50:39;99363.72;;;30.04
70123;BMP280;57489;37.404;24.920;2023-07-31T09:55:41;99363.72;;;30.04
70123;BMP280;57489;37.404;24.920;2023-07-31T10:00:41;99363.72;;;30.04
70123;BMP280;57489;37.404;24.920;2023-07-31T10:05:53;99363.72;;;30.04
70123;BMP280;57489;37.404;24.920;2023-07-31T10:10:58;99363.72;;;30.04
70123;BMP280;57489;37.404;24.920;2023-07-31T10:16:00;99363.72;;;30.04
70123;BMP280;57489;37.404;24.920;2023-07-31T10:21:00;99363.72;;;30.04
70123;BMP280;57489;37.404;24.920;2023-07-31T10:26:01;99363.72;;;30.04
70123;BMP280;57489;37.404;24.920;2023-07-31T10:31:03;99363.72;;;30.04
70123;BMP280;57489;37.404;24.920;2023-07-31T10:36:16;99363.72;;;30.04
70123;BMP280;57489;37.404;24.920;2023-07-31T10:41:17;99363.72;;;30.04
70123;BMP280;57489;37.404;24.920;2023-07-31T10:46:17;99363.72;;;30.04
70123;BMP280;57489;37.404;24.920;2023-07-31T10:51:20;99363.72;;;30.04
70123;BMP280;57489;37.404;24.920;2023-07-31T10:56:21;99363.72;;;30.04
70123;BMP280;57489;37.404;24.920;2023-07-31T11:01:51;99363.72;;;30.04
70123;BMP280;57489;37.404;24.920;2023-07-31T11:06:56;99363.72;;;30.04
70123;BMP280;57489;37.404;24.920;2023-07-31T11:11:56;99363.72;;;30.04
70123;BMP280;57489;37.404;24.920;2023-07-31T11:16:57;99363.72;;;30.04
70123;BMP280;57489;37.404;24.920;2023-07-31T11:21:58;99363.72;;;30.04
70123;BMP280;57489;37.404;24.920;2023-07-31T11:26:59;99363.72;;;30.04
70123;BMP280;57489;37.404;24.920;2023-07-31T11:31:59;99363.72;;;30.04
70123;BMP280;57489;37.404;24.920;2023-07-31T11:37:00;99363.72;;;30.04
70123;BMP280;57489;37.404;24.920;2023-07-31T11:42:01;99454.81;;;35.18
70123;BMP280;57489;37.404;24.920;2023-07-31T11:47:03;99454.81;;;35.18
70123;BMP280;57489;37.404;24.920;2023-07-31T11:52:04;99454.81;;;35.18
70123;BMP280;57489;37.404;24.920;2023-07-31T11:57:04;99454.81;;;35.18
70123;BMP280;57489;37.404;24.920;2023-07-31T12:02:05;99454.81;;;35.18
70123;BMP280;57489;37.404;24.920;2023-07-31T12:07:06;99454.81;;;35.18
70123;BMP280;57489;37.404;24.920;2023-07-31T12:12:09;99454.81;;;35.18
70123;BMP280;57489;37.404;24.920;2023-07-31T12:17:10;99454.81;;;35.18
70123;BMP280;57489;37.404;24.920;2023-07-31T12:22:14;99454.81;;;35.18
70123;BMP280;57489;37.404;24.920;2023-07-31T12:27:15;99447.69;;;35.02
70123;BMP280;57489;37.404;24.920;2023-07-31T12:32:23;99447.69;;;35.02
70123;BMP280;57489;37.404;24.920;2023-07-31T12:37:24;99462.19;;;34.99
70123;BMP280;57489;37.404;24.920;2023-07-31T12:42:24;99447.56;;;34.84
70123;BMP280;57489;37.404;24.920;2023-07-31T12:47:25;99447.56;;;34.84
70123;BMP280;57489;37.404;24.920;2023-07-31T12:52:26;99447.56;;;34.84
70123;BMP280;57489;37.404;24.920;2023-07-31T12:57:26;99447.56;;;34.84
70123;BMP280;57489;37.404;24.920;2023-07-31T13:02:27;99447.56;;;34.84
70123;BMP280;57489;37.404;24.920;2023-07-31T13:07:28;99447.56;;;34.84
70123;BMP280;57489;37.404;24.920;2023-07-31T13:12:28;99445.03;;;34.68
70123;BMP280;57489;37.404;24.920;2023-07-31T13:17:29;99446.84;;;34.61
70123;BMP280;57489;37.404;24.920;2023-07-31T13:22:29;99446.84;;;34.61
70123;BMP280;57489;37.404;24.920;2023-07-31T13:27:30;99446.84;;;34.61
70123;BMP280;57489;37.404;24.920;2023-07-31T13:32:31;99433.13;;;34.74
70123;BMP280;57489;37.404;24.920;2023-07-31T13:37:31;99418.75;;;34.74
70123;BMP280;57489;37.404;24.920;2023-07-31T13:42:32;99417.63;;;34.62
70123;BMP280;57489;37.404;24.920;2023-07-31T13:47:33;99418.03;;;34.51
70123;BMP280;57489;37.404;24.920;2023-07-31T13:52:33;99421.28;;;34.37
70123;BMP280;57489;37.404;24.920;2023-07-31T13:57:33;99413.69;;;34.32
70123;BMP280;57489;37.404;24.920;2023-07-31T14:02:34;99403.28;;;34.40
70123;BMP280;57489;37.404;24.920;2023-07-31T14:07:34;99423.28;;;34.24
70123;BMP280;57489;37.404;24.920;2023-07-31T14:12:35;99422.72;;;34.29
70123;BMP280;57489;37.404;24.920;2023-07-31T14:17:35;99424.03;;;34.24
70123;BMP280;57489;37.404;24.920;2023-07-31T14:22:36;99424.34;;;34.26
70123;BMP280;57489;37.404;24.920;2023-07-31T14:27:36;99421.75;;;34.23
70123;BMP280;57489;37.404;24.920;2023-07-31T14:32:37;99420.13;;;34.25
70123;BMP280;57489;37.404;24.920;2023-07-31T14:37:39;99406.44;;;34.16
70123;BMP280;57489;37.404;24.920;2023-07-31T14:42:39;99405.34;;;34.14
70123;BMP280;57489;37.404;24.920;2023-07-31T14:47:40;99407.88;;;34.08
70123;BMP280;57489;37.404;24.920;2023-07-31T14:52:40;99407.41;;;34.10
70123;BMP280;57489;37.404;24.920;2023-07-31T14:57:41;99407.41;;;34.10
70123;BMP280;57489;37.404;24.920;2023-07-31T15:02:41;99407.41;;;34.10
70123;BMP280;57489;37.404;24.920;2023-07-31T15:07:42;99407.41;;;34.10
70123;BMP280;57489;37.404;24.920;2023-07-31T15:12:42;99407.41;;;34.10
70123;BMP280;57489;37.404;24.920;2023-07-31T15:17:43;99407.41;;;34.10
70123;BMP280;57489;37.404;24.920;2023-07-31T15:22:43;99407.41;;;34.10
70123;BMP280;57489;37.404;24.920;2023-07-31T15:27:44;99407.41;;;34.10
70123;BMP280;57489;37.404;24.920;2023-07-31T15:32:44;99407.41;;;34.10
70123;BMP280;57489;37.404;24.920;2023-07-31T15:37:45;99407.41;;;34.10
70123;BMP280;57489;37.404;24.920;2023-07-31T15:42:46;99407.41;;;34.10
70123;BMP280;57489;37.404;24.920;2023-07-31T15:47:47;99407.41;;;34.10
70123;BMP280;57489;37.404;24.920;2023-07-31T15:52:49;99407.41;;;34.10
70123;BMP280;57489;37.404;24.920;2023-07-31T15:57:50;99407.41;;;34.10
70123;BMP280;57489;37.404;24.920;2023-07-31T16:02:50;99407.41;;;34.10
70123;BMP280;57489;37.404;24.920;2023-07-31T16:07:50;99407.41;;;34.10
70123;BMP280;57489;37.404;24.920;2023-07-31T16:12:51;99407.41;;;34.10
70123;BMP280;57489;37.404;24.920;2023-07-31T16:17:51;99407.41;;;34.10
70123;BMP280;57489;37.404;24.920;2023-07-31T16:22:52;99407.41;;;34.10
70123;BMP280;57489;37.404;24.920;2023-07-31T16:27:54;99407.41;;;34.10
70123;BMP280;57489;37.404;24.920;2023-07-31T16:32:54;99407.41;;;34.10
70123;BMP280;57489;37.404;24.920;2023-07-31T16:37:55;99407.41;;;34.10
70123;BMP280;57489;37.404;24.920;2023-07-31T16:42:55;99407.41;;;34.10
70123;BMP280;57489;37.404;24.920;2023-07-31T16:47:55;99407.41;;;34.10
70123;BMP280;57489;37.404;24.920;2023-07-31T16:52:56;99407.41;;;34.10
70123;BMP280;57489;37.404;24.920;2023-07-31T16:57:56;99407.41;;;34.10
70123;BMP280;57489;37.404;24.920;2023-07-31T17:02:57;99407.41;;;34.10
70123;BMP280;57489;37.404;24.920;2023-07-31T17:07:57;99407.41;;;34.10
70123;BMP280;57489;37.404;24.920;2023-07-31T17:12:58;99407.41;;;34.10
70123;BMP280;57489;37.404;24.920;2023-07-31T17:17:58;99407.41;;;34.10
70123;BMP280;57489;37.404;24.920;2023-07-31T17:22:58;99407.41;;;34.10
70123;BMP280;57489;37.404;24.920;2023-07-31T17:27:59;99407.41;;;34.10
70123;BMP280;57489;37.404;24.920;2023-07-31T17:32:59;99407.41;;;34.10
70123;BMP280;57489;37.404;24.920;2023-07-31T17:38:00;99407.41;;;34.10
70123;BMP280;57489;37.404;24.920;2023-07-31T17:43:00;99407.41;;;34.10
70123;BMP280;57489;37.404;24.920;2023-07-31T17:48:01;99407.41;;;34.10
70123;BMP280;57489;37.404;24.920;2023-07-31T17:53:01;99407.41;;;34.10
70123;BMP280;57489;37.404;24.920;2023-07-31T17:58:02;99407.41;;;34.10
70123;BMP280;57489;37.404;24.920;2023-07-31T18:03:02;99407.41;;;34.10
70123;BMP280;57489;37.404;24.920;2023-07-31T18:08:03;99407.41;;;34.10
70123;BMP280;57489;37.404;24.920;2023-07-31T18:13:03;99407.41;;;34.10
70123;BMP280;57489;37.404;24.920;2023-07-31T18:18:04;99407.41;;;34.10
70123;BMP280;57489;37.404;24.920;2023-07-31T18:23:05;99407.41;;;34.10
70123;BMP280;57489;37.404;24.920;2023-07-31T18:28:05;99407.41;;;34.10
70123;BMP280;57489;37.404;24.920;2023-07-31T18:33:06;99407.41;;;34.10
70123;BMP280;57489;37.404;24.920;2023-07-31T18:38:06;99407.41;;;34.10
70123;BMP280;57489;37.404;24.920;2023-07-31T18:43:06;99407.41;;;34.10
70123;BMP280;57489;37.404;24.920;2023-07-31T18:48:07;99407.41;;;34.10
70123;BMP280;57489;37.404;24.920;2023-07-31T18:53:07;99407.41;;;34.10
70123;BMP280;57489;37.404;24.920;2023-07-31T18:58:08;99407.41;;;34.10
70123;BMP280;57489;37.404;24.920;2023-07-31T19:03:08;99407.41;;;34.10
70123;BMP280;57489;37.404;24.920;2023-07-31T19:08:09;99407.41;;;34.10
70123;BMP280;57489;37.404;24.920;2023-07-31T19:13:09;99407.41;;;34.10
70123;BMP280;57489;37.404;24.920;2023-07-31T19:18:10;99407.41;;;34.10
70123;BMP280;57489;37.404;24.920;2023-07-31T19:23:10;99407.41;;;34.10
70123;BMP280;57489;37.404;24.920;2023-07-31T19:28:11;99407.41;;;34.10
70123;BMP280;57489;37.404;24.920;2023-07-31T19:33:11;99407.41;;;34.10
70123;BMP280;57489;37.404;24.920;2023-07-31T19:38:11;99407.41;;;34.10
70123;BMP280;57489;37.404;24.920;2023-07-31T19:43:12;99407.41;;;34.10
70123;BMP280;57489;37.404;24.920;2023-07-31T19:48:12;99407.41;;;34.10
70123;BMP280;57489;37.404;24.920;2023-07-31T19:53:13;99407.41;;;34.10
70123;BMP280;57489;37.404;24.920;2023-07-31T19:58:13;99407.41;;;34.10
70123;BMP280;57489;37.404;24.920;2023-07-31T20:03:14;99407.41;;;34.10
70123;BMP280;57489;37.404;24.920;2023-07-31T20:08:15;99407.41;;;34.10
70123;BMP280;57489;37.404;24.920;2023-07-31T20:13:15;99407.41;;;34.10
70123;BMP280;57489;37.404;24.920;2023-07-31T20:18:16;99407.41;;;34.10
70123;BMP280;57489;37.404;24.920;2023-07-31T20:23:16;99407.41;;;34.10
70123;BMP280;57489;37.404;24.920;2023-07-31T20:28:17;99407.41;;;34.10
70123;BMP280;57489;37.404;24.920;2023-07-31T20:33:17;99407.41;;;34.10
70123;BMP280;57489;37.404;24.920;2023-07-31T20:38:18;99407.41;;;34.10
70123;BMP280;57489;37.404;24.920;2023-07-31T20:43:18;99407.41;;;34.10
70123;BMP280;57489;37.404;24.920;2023-07-31T20:48:19;99407.41;;;34.10
70123;BMP280;57489;37.404;24.920;2023-07-31T20:53:19;99407.41;;;34.10
70123;BMP280;57489;37.404;24.920;2023-07-31T20:58:20;99407.41;;;34.10
70123;BMP280;57489;37.404;24.920;2023-07-31T21:03:20;99407.41;;;34.10
70123;BMP280;57489;37.404;24.920;2023-07-31T21:08:21;99407.41;;;34.10
70123;BMP280;57489;37.404;24.920;2023-07-31T21:13:21;99407.41;;;34.10
70123;BMP280;57489;37.404;24.920;2023-07-31T21:18:22;99407.41;;;34.10
70123;BMP280;57489;37.404;24.920;2023-07-31T21:23:22;99407.41;;;34.10
70123;BMP280;57489;37.404;24.920;2023-07-31T21:28:23;99407.41;;;34.10
70123;BMP280;57489;37.404;24.920;2023-07-31T21:33:25;99407.41;;;34.10
70123;BMP280;57489;37.404;24.920;2023-07-31T21:38:25;99407.41;;;34.10
70123;BMP280;57489;37.404;24.920;2023-07-31T21:43:29;99407.41;;;34.10
70123;BMP280;57489;37.404;24.920;2023-07-31T21:48:29;99407.41;;;34.10
70123;BMP280;57489;37.404;24.920;2023-07-31T21:53:30;99407.41;;;34.10
70123;BMP280;57489;37.404;24.920;2023-07-31T21:58:30;99407.41;;;34.10
70123;BMP280;57489;37.404;24.920;2023-07-31T22:03:30;99407.41;;;34.10
70123;BMP280;57489;37.404;24.920;2023-07-31T22:08:31;99407.41;;;34.10
70123;BMP280;57489;37.404;24.920;2023-07-31T22:13:31;99407.41;;;34.10
70123;BMP280;57489;37.404;24.920;2023-07-31T22:18:32;99407.41;;;34.10
70123;BMP280;57489;37.404;24.920;2023-07-31T22:23:33;99407.41;;;34.10
70123;BMP280;57489;37.404;24.920;2023-07-31T22:28:33;99407.41;;;34.10
70123;BMP280;57489;37.404;24.920;2023-07-31T22:33:35;99407.41;;;34.10
70123;BMP280;57489;37.404;24.920;2023-07-31T22:38:35;99407.41;;;34.10
70123;BMP280;57489;37.404;24.920;2023-07-31T22:43:36;99407.41;;;34.10
70123;BMP280;57489;37.404;24.920;2023-07-31T22:48:36;99407.41;;;34.10
70123;BMP280;57489;37.404;24.920;2023-07-31T22:53:37;99407.41;;;34.10
70123;BMP280;57489;37.404;24.920;2023-07-31T22:58:37;99407.41;;;34.10
70123;BMP280;57489;37.404;24.920;2023-07-31T23:03:38;99407.41;;;34.10
70123;BMP280;57489;37.404;24.920;2023-07-31T23:08:39;99407.41;;;34.10
70123;BMP280;57489;37.404;24.920;2023-07-31T23:13:39;99407.41;;;34.10
70123;BMP280;57489;37.404;24.920;2023-07-31T23:18:39;99407.41;;;34.10
70123;BMP280;57489;37.404;24.920;2023-07-31T23:23:40;99407.41;;;34.10
70123;BMP280;57489;37.404;24.920;2023-07-31T23:28:40;99407.41;;;34.10
70123;BMP280;57489;37.404;24.920;2023-07-31T23:33:41;99407.41;;;34.10
70123;BMP280;57489;37.404;24.920;2023-07-31T23:38:41;99407.41;;;34.10
70123;BMP280;57489;37.404;24.920;2023-07-31T23:43:43;99407.41;;;34.10
70123;BMP280;57489;37.404;24.920;2023-07-31T23:48:43;99407.41;;;34.10
70123;BMP280;57489;37.404;24.920;2023-07-31T23:53:44;99407.41;;;34.10
70123;BMP280;57489;37.404;24.920;2023-07-31T23:58:44;99407.41;;;34.10
